sensor_id;sensor_type;location;lat;lon;timestamp;pressure;altitude;pressure_sealevel;temperature;humidity
75745;BME280;64359;51.366;-0.222;2023-06-26T00:00:35;101287.98;;;26.69;48.09
75745;BME280;64359;51.366;-0.222;2023-06-26T00:01:40;101288.23;;;26.69;47.60
75745;BME280;64359;51.366;-0.222;2023-06-26T00:02:45;101289.16;;;26.69;47.60
75745;BME280;64359;51.366;-0.222;2023-06-26T00:03:49;101289.76;;;26.68;47.86
75745;BME280;64359;51.366;-0.222;2023-06-26T00:04:54;101289.46;;;26.68;47.56
75745;BME280;64359;51.366;-0.222;2023-06-26T00:05:58;101288.49;;;26.67;47.66
75745;BME280;64359;51.366;-0.222;2023-06-26T00:07:03;101292.27;;;26.67;47.84
75745;BME280;64359;51.366;-0.222;2023-06-26T00:08:08;101294.52;;;26.67;47.54
75745;BME280;64359;51.366;-0.222;2023-06-26T00:09:12;101293.34;;;26.66;47.70
75745;BME280;64359;51.366;-0.222;2023-06-26T00:10:16;101291.20;;;26.66;47.63
75745;BME280;64359;51.366;-0.222;2023-06-26T00:11:21;101295.58;;;26.66;47.94
75745;BME280;64359;51.366;-0.222;2023-06-26T00:12:25;101297.72;;;26.65;47.67
75745;BME280;64359;51.366;-0.222;2023-06-26T00:13:30;101298.48;;;26.65;47.72
75745;BME280;64359;51.366;-0.222;2023-06-26T00:14:34;101297.46;;;26.64;47.67
75745;BME280;64359;51.366;-0.222;2023-06-26T00:15:38;101300.45;;;26.64;47.44
75745;BME280;64359;51.366;-0.222;2023-06-26T00:16:43;101299.73;;;26.64;47.79
75745;BME280;64359;51.366;-0.222;2023-06-26T00:17:47;101301.25;;;26.63;47.57
75745;BME280;64359;51.366;-0.222;2023-06-26T00:18:54;101301.13;;;26.63;47.62
75745;BME280;64359;51.366;-0.222;2023-06-26T00:19:58;101302.68;;;26.62;47.77
75745;BME280;64359;51.366;-0.222;2023-06-26T00:21:02;101303.23;;;26.62;47.61
75745;BME280;64359;51.366;-0.222;2023-06-26T00:22:07;101305.51;;;26.61;47.91
75745;BME280;64359;51.366;-0.222;2023-06-26T00:23:12;101304.84;;;26.61;47.67
75745;BME280;64359;51.366;-0.222;2023-06-26T00:24:19;101308.41;;;26.60;47.55
75745;BME280;64359;51.366;-0.222;2023-06-26T00:25:24;101309.00;;;26.60;47.78
75745;BME280;64359;51.366;-0.222;2023-06-26T00:26:28;101308.92;;;26.59;47.70
75745;BME280;64359;51.366;-0.222;2023-06-26T00:27:33;101309.89;;;26.59;47.76
75745;BME280;64359;51.366;-0.222;2023-06-26T00:28:37;101311.61;;;26.58;47.64
75745;BME280;64359;51.366;-0.222;2023-06-26T00:29:41;101308.38;;;26.58;47.73
75745;BME280;64359;51.366;-0.222;2023-06-26T00:30:46;101313.51;;;26.57;47.67
75745;BME280;64359;51.366;-0.222;2023-06-26T00:31:50;101315.69;;;26.57;48.08
75745;BME280;64359;51.366;-0.222;2023-06-26T00:32:54;101311.41;;;26.57;47.84
75745;BME280;64359;51.366;-0.222;2023-06-26T00:33:58;101316.83;;;26.57;47.69
75745;BME280;64359;51.366;-0.222;2023-06-26T00:35:03;101313.80;;;26.57;47.70
75745;BME280;64359;51.366;-0.222;2023-06-26T00:36:07;101314.65;;;26.56;47.61
75745;BME280;64359;51.366;-0.222;2023-06-26T00:37:12;101316.28;;;26.56;47.73
75745;BME280;64359;51.366;-0.222;2023-06-26T00:38:16;101314.86;;;26.56;47.73
75745;BME280;64359;51.366;-0.222;2023-06-26T00:39:21;101318.55;;;26.55;47.82
75745;BME280;64359;51.366;-0.222;2023-06-26T00:40:25;101321.38;;;26.55;47.81
75745;BME280;64359;51.366;-0.222;2023-06-26T00:41:30;101316.88;;;26.54;47.72
75745;BME280;64359;51.366;-0.222;2023-06-26T00:42:34;101319.11;;;26.54;47.62
75745;BME280;64359;51.366;-0.222;2023-06-26T00:43:39;101319.02;;;26.53;47.75
75745;BME280;64359;51.366;-0.222;2023-06-26T00:44:44;101321.92;;;26.53;47.92
75745;BME280;64359;51.366;-0.222;2023-06-26T00:45:48;101322.35;;;26.53;47.92
75745;BME280;64359;51.366;-0.222;2023-06-26T00:46:52;101321.89;;;26.52;47.84
75745;BME280;64359;51.366;-0.222;2023-06-26T00:47:57;101321.59;;;26.52;47.95
75745;BME280;64359;51.366;-0.222;2023-06-26T00:49:03;101323.65;;;26.51;47.79
75745;BME280;64359;51.366;-0.222;2023-06-26T00:50:08;101326.81;;;26.51;47.65
75745;BME280;64359;51.366;-0.222;2023-06-26T00:51:13;101321.46;;;26.50;47.81
75745;BME280;64359;51.366;-0.222;2023-06-26T00:52:17;101325.11;;;26.50;47.63
75745;BME280;64359;51.366;-0.222;2023-06-26T00:53:22;101326.46;;;26.49;47.75
75745;BME280;64359;51.366;-0.222;2023-06-26T00:54:27;101323.21;;;26.49;47.82
75745;BME280;64359;51.366;-0.222;2023-06-26T00:55:31;101323.09;;;26.49;47.65
75745;BME280;64359;51.366;-0.222;2023-06-26T00:56:36;101323.88;;;26.48;47.60
75745;BME280;64359;51.366;-0.222;2023-06-26T00:57:40;101328.64;;;26.48;47.78
75745;BME280;64359;51.366;-0.222;2023-06-26T00:58:46;101325.73;;;26.47;47.81
75745;BME280;64359;51.366;-0.222;2023-06-26T00:59:50;101330.06;;;26.47;47.86
75745;BME280;64359;51.366;-0.222;2023-06-26T01:00:55;101328.10;;;26.47;47.74
75745;BME280;64359;51.366;-0.222;2023-06-26T01:02:00;101328.27;;;26.46;47.85
75745;BME280;64359;51.366;-0.222;2023-06-26T01:03:04;101332.30;;;26.46;47.82
75745;BME280;64359;51.366;-0.222;2023-06-26T01:04:08;101333.23;;;26.45;47.69
75745;BME280;64359;51.366;-0.222;2023-06-26T01:05:21;101335.04;;;26.44;47.77
75745;BME280;64359;51.366;-0.222;2023-06-26T01:06:27;101334.15;;;26.44;47.77
75745;BME280;64359;51.366;-0.222;2023-06-26T01:07:35;101337.73;;;26.43;47.88
75745;BME280;64359;51.366;-0.222;2023-06-26T01:08:41;101337.98;;;26.43;48.00
75745;BME280;64359;51.366;-0.222;2023-06-26T01:09:46;101338.23;;;26.42;47.98
75745;BME280;64359;51.366;-0.222;2023-06-26T01:10:52;101336.04;;;26.42;47.87
75745;BME280;64359;51.366;-0.222;2023-06-26T01:11:56;101337.40;;;26.42;48.00
75745;BME280;64359;51.366;-0.222;2023-06-26T01:13:00;101337.83;;;26.40;47.92
75745;BME280;64359;51.366;-0.222;2023-06-26T01:14:05;101340.35;;;26.40;47.96
75745;BME280;64359;51.366;-0.222;2023-06-26T01:15:10;101341.48;;;26.40;48.11
75745;BME280;64359;51.366;-0.222;2023-06-26T01:16:15;101344.78;;;26.37;48.04
75745;BME280;64359;51.366;-0.222;2023-06-26T01:17:22;101345.59;;;26.39;47.81
75745;BME280;64359;51.366;-0.222;2023-06-26T01:18:27;101345.48;;;26.39;48.02
75745;BME280;64359;51.366;-0.222;2023-06-26T01:19:33;101349.42;;;26.38;47.92
75745;BME280;64359;51.366;-0.222;2023-06-26T01:20:39;101348.54;;;26.38;47.86
75745;BME280;64359;51.366;-0.222;2023-06-26T01:21:47;101348.58;;;26.37;48.03
75745;BME280;64359;51.366;-0.222;2023-06-26T01:23:03;101352.11;;;26.37;47.88
75745;BME280;64359;51.366;-0.222;2023-06-26T01:24:15;101352.41;;;26.36;48.13
75745;BME280;64359;51.366;-0.222;2023-06-26T01:25:31;101350.80;;;26.33;47.91
75745;BME280;64359;51.366;-0.222;2023-06-26T01:26:41;101354.88;;;26.34;48.00
75745;BME280;64359;51.366;-0.222;2023-06-26T01:27:50;101357.34;;;26.33;48.06
75745;BME280;64359;51.366;-0.222;2023-06-26T01:28:55;101356.45;;;26.33;48.18
75745;BME280;64359;51.366;-0.222;2023-06-26T01:30:02;101362.30;;;26.33;48.35
75745;BME280;64359;51.366;-0.222;2023-06-26T01:31:07;101360.58;;;26.32;48.17
75745;BME280;64359;51.366;-0.222;2023-06-26T01:32:11;101359.56;;;26.31;48.09
75745;BME280;64359;51.366;-0.222;2023-06-26T01:33:16;101361.25;;;26.31;48.11
75745;BME280;64359;51.366;-0.222;2023-06-26T01:34:21;101358.69;;;26.31;47.82
75745;BME280;64359;51.366;-0.222;2023-06-26T01:35:26;101367.30;;;26.30;48.05
75745;BME280;64359;51.366;-0.222;2023-06-26T01:36:30;101364.95;;;26.30;48.07
75745;BME280;64359;51.366;-0.222;2023-06-26T01:37:35;101365.04;;;26.30;48.21
75745;BME280;64359;51.366;-0.222;2023-06-26T01:38:39;101366.55;;;26.29;48.18
75745;BME280;64359;51.366;-0.222;2023-06-26T01:39:43;101370.91;;;26.29;48.09
75745;BME280;64359;51.366;-0.222;2023-06-26T01:40:48;101368.06;;;26.29;48.16
75745;BME280;64359;51.366;-0.222;2023-06-26T01:41:53;101371.21;;;26.29;48.05
75745;BME280;64359;51.366;-0.222;2023-06-26T01:42:58;101370.16;;;26.28;48.12
75745;BME280;64359;51.366;-0.222;2023-06-26T01:44:16;101368.45;;;26.27;48.13
75745;BME280;64359;51.366;-0.222;2023-06-26T01:45:27;101366.36;;;26.27;48.15
75745;BME280;64359;51.366;-0.222;2023-06-26T01:46:39;101364.81;;;26.26;48.11
75745;BME280;64359;51.366;-0.222;2023-06-26T01:47:47;101364.55;;;26.25;48.15
75745;BME280;64359;51.366;-0.222;2023-06-26T01:48:54;101363.42;;;26.24;48.21
75745;BME280;64359;51.366;-0.222;2023-06-26T01:50:02;101366.61;;;26.21;48.25
75745;BME280;64359;51.366;-0.222;2023-06-26T01:51:09;101357.88;;;26.17;48.19
75745;BME280;64359;51.366;-0.222;2023-06-26T01:52:19;101363.58;;;26.20;48.23
75745;BME280;64359;51.366;-0.222;2023-06-26T01:53:29;101359.77;;;26.19;48.12
75745;BME280;64359;51.366;-0.222;2023-06-26T01:54:39;101360.31;;;26.19;48.27
75745;BME280;64359;51.366;-0.222;2023-06-26T01:55:49;101358.55;;;26.18;48.30
75745;BME280;64359;51.366;-0.222;2023-06-26T01:56:55;101361.48;;;26.18;48.19
75745;BME280;64359;51.366;-0.222;2023-06-26T01:58:01;101364.26;;;26.18;48.25
75745;BME280;64359;51.366;-0.222;2023-06-26T01:59:06;101366.35;;;26.17;48.22
75745;BME280;64359;51.366;-0.222;2023-06-26T02:00:13;101369.98;;;26.17;48.15
75745;BME280;64359;51.366;-0.222;2023-06-26T02:01:21;101367.49;;;26.17;48.22
75745;BME280;64359;51.366;-0.222;2023-06-26T02:02:27;101372.45;;;26.17;48.32
75745;BME280;64359;51.366;-0.222;2023-06-26T02:03:32;101375.52;;;26.16;48.28
75745;BME280;64359;51.366;-0.222;2023-06-26T02:04:36;101373.84;;;26.16;48.40
75745;BME280;64359;51.366;-0.222;2023-06-26T02:05:41;101374.00;;;26.16;48.20
75745;BME280;64359;51.366;-0.222;2023-06-26T02:06:45;101375.55;;;26.15;48.18
75745;BME280;64359;51.366;-0.222;2023-06-26T02:07:49;101377.23;;;26.15;48.15
75745;BME280;64359;51.366;-0.222;2023-06-26T02:08:54;101376.19;;;26.13;48.18
75745;BME280;64359;51.366;-0.222;2023-06-26T02:09:59;101377.59;;;26.14;48.37
75745;BME280;64359;51.366;-0.222;2023-06-26T02:11:03;101379.68;;;26.13;48.14
75745;BME280;64359;51.366;-0.222;2023-06-26T02:12:08;101379.01;;;26.10;48.11
75745;BME280;64359;51.366;-0.222;2023-06-26T02:13:13;101383.55;;;26.13;48.15
75745;BME280;64359;51.366;-0.222;2023-06-26T02:14:17;101382.50;;;26.13;48.33
75745;BME280;64359;51.366;-0.222;2023-06-26T02:15:21;101379.85;;;26.12;48.30
75745;BME280;64359;51.366;-0.222;2023-06-26T02:16:26;101377.58;;;26.11;48.20
75745;BME280;64359;51.366;-0.222;2023-06-26T02:17:30;101376.02;;;26.11;48.21
75745;BME280;64359;51.366;-0.222;2023-06-26T02:18:34;101378.96;;;26.11;48.12
75745;BME280;64359;51.366;-0.222;2023-06-26T02:19:39;101379.52;;;26.11;48.17
75745;BME280;64359;51.366;-0.222;2023-06-26T02:20:50;101381.65;;;26.10;48.22
75745;BME280;64359;51.366;-0.222;2023-06-26T02:21:54;101382.41;;;26.09;48.21
75745;BME280;64359;51.366;-0.222;2023-06-26T02:22:58;101385.02;;;26.09;48.14
75745;BME280;64359;51.366;-0.222;2023-06-26T02:24:03;101384.00;;;26.06;48.34
75745;BME280;64359;51.366;-0.222;2023-06-26T02:25:08;101390.52;;;26.08;48.37
75745;BME280;64359;51.366;-0.222;2023-06-26T02:26:13;101386.65;;;26.07;48.30
75745;BME280;64359;51.366;-0.222;2023-06-26T02:27:17;101395.69;;;26.07;48.31
75745;BME280;64359;51.366;-0.222;2023-06-26T02:28:21;101392.28;;;26.06;48.19
75745;BME280;64359;51.366;-0.222;2023-06-26T02:29:26;101395.10;;;26.06;48.22
75745;BME280;64359;51.366;-0.222;2023-06-26T02:30:30;101391.52;;;26.05;48.24
75745;BME280;64359;51.366;-0.222;2023-06-26T02:31:34;101388.80;;;26.05;48.31
75745;BME280;64359;51.366;-0.222;2023-06-26T02:32:38;101388.38;;;26.04;48.33
75745;BME280;64359;51.366;-0.222;2023-06-26T02:33:44;101385.39;;;26.04;48.27
75745;BME280;64359;51.366;-0.222;2023-06-26T02:34:48;101387.91;;;26.04;48.28
75745;BME280;64359;51.366;-0.222;2023-06-26T02:35:54;101388.07;;;26.03;48.38
75745;BME280;64359;51.366;-0.222;2023-06-26T02:36:59;101390.80;;;26.03;48.28
75745;BME280;64359;51.366;-0.222;2023-06-26T02:38:03;101393.57;;;26.02;48.17
75745;BME280;64359;51.366;-0.222;2023-06-26T02:39:07;101393.27;;;26.01;48.28
75745;BME280;64359;51.366;-0.222;2023-06-26T02:40:12;101394.60;;;26.01;48.32
75745;BME280;64359;51.366;-0.222;2023-06-26T02:41:16;101396.45;;;26.01;48.33
75745;BME280;64359;51.366;-0.222;2023-06-26T02:42:21;101399.81;;;26.00;48.31
75745;BME280;64359;51.366;-0.222;2023-06-26T02:43:25;101396.75;;;26.00;48.31
75745;BME280;64359;51.366;-0.222;2023-06-26T02:44:29;101402.08;;;26.00;48.31
75745;BME280;64359;51.366;-0.222;2023-06-26T02:45:33;101400.31;;;25.99;48.29
75745;BME280;64359;51.366;-0.222;2023-06-26T02:46:38;101403.13;;;25.99;48.34
75745;BME280;64359;51.366;-0.222;2023-06-26T02:47:42;101405.06;;;25.98;48.41
75745;BME280;64359;51.366;-0.222;2023-06-26T02:48:46;101403.76;;;25.98;48.38
75745;BME280;64359;51.366;-0.222;2023-06-26T02:49:51;101405.73;;;25.97;48.37
75745;BME280;64359;51.366;-0.222;2023-06-26T02:50:55;101407.79;;;25.97;48.25
75745;BME280;64359;51.366;-0.222;2023-06-26T02:51:59;101409.09;;;25.96;48.50
75745;BME280;64359;51.366;-0.222;2023-06-26T02:53:04;101411.31;;;25.96;48.31
75745;BME280;64359;51.366;-0.222;2023-06-26T02:54:08;101410.19;;;25.95;48.38
75745;BME280;64359;51.366;-0.222;2023-06-26T02:55:12;101409.05;;;25.95;48.40
75745;BME280;64359;51.366;-0.222;2023-06-26T02:56:17;101411.32;;;25.95;48.46
75745;BME280;64359;51.366;-0.222;2023-06-26T02:57:21;101408.25;;;25.95;48.46
75745;BME280;64359;51.366;-0.222;2023-06-26T02:58:25;101411.39;;;25.94;48.47
75745;BME280;64359;51.366;-0.222;2023-06-26T02:59:30;101408.37;;;25.94;48.40
75745;BME280;64359;51.366;-0.222;2023-06-26T03:00:34;101415.89;;;25.93;48.46
75745;BME280;64359;51.366;-0.222;2023-06-26T03:01:44;101414.30;;;25.93;48.46
75745;BME280;64359;51.366;-0.222;2023-06-26T03:02:48;101413.74;;;25.92;48.43
75745;BME280;64359;51.366;-0.222;2023-06-26T03:03:52;101414.64;;;25.92;48.49
75745;BME280;64359;51.366;-0.222;2023-06-26T03:04:57;101417.95;;;25.92;48.44
75745;BME280;64359;51.366;-0.222;2023-06-26T03:06:01;101412.11;;;25.90;48.40
75745;BME280;64359;51.366;-0.222;2023-06-26T03:07:06;101411.23;;;25.90;48.50
75745;BME280;64359;51.366;-0.222;2023-06-26T03:08:10;101413.66;;;25.90;48.55
75745;BME280;64359;51.366;-0.222;2023-06-26T03:09:14;101410.42;;;25.89;48.43
75745;BME280;64359;51.366;-0.222;2023-06-26T03:10:19;101412.48;;;25.89;48.42
75745;BME280;64359;51.366;-0.222;2023-06-26T03:11:24;101414.20;;;25.88;48.66
75745;BME280;64359;51.366;-0.222;2023-06-26T03:12:28;101412.23;;;25.88;48.60
75745;BME280;64359;51.366;-0.222;2023-06-26T03:13:33;101413.99;;;25.87;48.48
75745;BME280;64359;51.366;-0.222;2023-06-26T03:14:38;101412.95;;;25.87;48.50
75745;BME280;64359;51.366;-0.222;2023-06-26T03:15:42;101412.77;;;25.87;48.63
75745;BME280;64359;51.366;-0.222;2023-06-26T03:16:47;101415.08;;;25.86;48.62
75745;BME280;64359;51.366;-0.222;2023-06-26T03:17:52;101414.79;;;25.85;48.66
75745;BME280;64359;51.366;-0.222;2023-06-26T03:18:56;101411.80;;;25.86;48.67
75745;BME280;64359;51.366;-0.222;2023-06-26T03:20:00;101413.98;;;25.85;48.69
75745;BME280;64359;51.366;-0.222;2023-06-26T03:21:05;101413.45;;;25.85;48.67
75745;BME280;64359;51.366;-0.222;2023-06-26T03:22:09;101414.04;;;25.84;48.63
75745;BME280;64359;51.366;-0.222;2023-06-26T03:23:14;101413.61;;;25.83;48.66
75745;BME280;64359;51.366;-0.222;2023-06-26T03:24:18;101415.45;;;25.83;48.64
75745;BME280;64359;51.366;-0.222;2023-06-26T03:25:22;101418.27;;;25.83;48.67
75745;BME280;64359;51.366;-0.222;2023-06-26T03:26:27;101418.60;;;25.81;48.65
75745;BME280;64359;51.366;-0.222;2023-06-26T03:27:31;101422.59;;;25.82;48.76
75745;BME280;64359;51.366;-0.222;2023-06-26T03:28:35;101422.42;;;25.81;48.57
75745;BME280;64359;51.366;-0.222;2023-06-26T03:29:40;101426.00;;;25.80;48.76
75745;BME280;64359;51.366;-0.222;2023-06-26T03:30:44;101422.89;;;25.81;48.73
75745;BME280;64359;51.366;-0.222;2023-06-26T03:31:48;101423.80;;;25.81;48.76
75745;BME280;64359;51.366;-0.222;2023-06-26T03:32:53;101424.43;;;25.80;48.86
75745;BME280;64359;51.366;-0.222;2023-06-26T03:33:57;101426.35;;;25.79;48.77
75745;BME280;64359;51.366;-0.222;2023-06-26T03:35:01;101426.77;;;25.79;48.80
75745;BME280;64359;51.366;-0.222;2023-06-26T03:36:06;101427.43;;;25.78;48.86
75745;BME280;64359;51.366;-0.222;2023-06-26T03:37:12;101425.38;;;25.78;48.79
75745;BME280;64359;51.366;-0.222;2023-06-26T03:38:16;101424.95;;;25.78;48.76
75745;BME280;64359;51.366;-0.222;2023-06-26T03:39:20;101425.87;;;25.78;48.81
75745;BME280;64359;51.366;-0.222;2023-06-26T03:40:25;101431.08;;;25.77;48.81
75745;BME280;64359;51.366;-0.222;2023-06-26T03:41:30;101429.98;;;25.77;48.89
75745;BME280;64359;51.366;-0.222;2023-06-26T03:42:34;101431.33;;;25.76;48.83
75745;BME280;64359;51.366;-0.222;2023-06-26T03:43:38;101434.27;;;25.76;48.90
75745;BME280;64359;51.366;-0.222;2023-06-26T03:44:43;101433.80;;;25.75;48.88
75745;BME280;64359;51.366;-0.222;2023-06-26T03:45:47;101433.01;;;25.74;48.97
75745;BME280;64359;51.366;-0.222;2023-06-26T03:46:51;101433.35;;;25.75;48.90
75745;BME280;64359;51.366;-0.222;2023-06-26T03:47:56;101434.73;;;25.74;48.94
75745;BME280;64359;51.366;-0.222;2023-06-26T03:49:00;101432.04;;;25.74;49.08
75745;BME280;64359;51.366;-0.222;2023-06-26T03:50:05;101434.97;;;25.74;48.85
75745;BME280;64359;51.366;-0.222;2023-06-26T03:51:09;101436.86;;;25.73;49.01
75745;BME280;64359;51.366;-0.222;2023-06-26T03:52:14;101437.83;;;25.72;48.86
75745;BME280;64359;51.366;-0.222;2023-06-26T03:53:18;101437.91;;;25.72;48.99
75745;BME280;64359;51.366;-0.222;2023-06-26T03:54:22;101439.96;;;25.71;49.00
75745;BME280;64359;51.366;-0.222;2023-06-26T03:55:27;101443.07;;;25.71;48.95
75745;BME280;64359;51.366;-0.222;2023-06-26T03:56:31;101442.74;;;25.71;48.99
75745;BME280;64359;51.366;-0.222;2023-06-26T03:57:35;101443.74;;;25.70;48.93
75745;BME280;64359;51.366;-0.222;2023-06-26T03:58:40;101448.31;;;25.70;48.97
75745;BME280;64359;51.366;-0.222;2023-06-26T03:59:44;101446.01;;;25.69;48.97
75745;BME280;64359;51.366;-0.222;2023-06-26T04:00:48;101449.29;;;25.69;49.07
75745;BME280;64359;51.366;-0.222;2023-06-26T04:01:53;101441.38;;;25.68;49.00
75745;BME280;64359;51.366;-0.222;2023-06-26T04:02:57;101442.90;;;25.68;49.16
75745;BME280;64359;51.366;-0.222;2023-06-26T04:04:02;101445.66;;;25.68;49.15
75745;BME280;64359;51.366;-0.222;2023-06-26T04:05:07;101453.02;;;25.67;48.91
75745;BME280;64359;51.366;-0.222;2023-06-26T04:06:14;101449.44;;;25.67;48.99
75745;BME280;64359;51.366;-0.222;2023-06-26T04:07:22;101450.09;;;25.66;49.07
75745;BME280;64359;51.366;-0.222;2023-06-26T04:08:28;101447.40;;;25.66;49.00
75745;BME280;64359;51.366;-0.222;2023-06-26T04:09:32;101443.17;;;25.66;49.03
75745;BME280;64359;51.366;-0.222;2023-06-26T04:10:36;101436.86;;;25.66;49.05
75745;BME280;64359;51.366;-0.222;2023-06-26T04:11:41;101435.17;;;25.66;49.04
75745;BME280;64359;51.366;-0.222;2023-06-26T04:12:45;101436.27;;;25.66;49.03
75745;BME280;64359;51.366;-0.222;2023-06-26T04:13:49;101436.41;;;25.66;48.96
75745;BME280;64359;51.366;-0.222;2023-06-26T04:14:54;101435.35;;;25.66;48.95
75745;BME280;64359;51.366;-0.222;2023-06-26T04:15:58;101439.75;;;25.65;48.99
75745;BME280;64359;51.366;-0.222;2023-06-26T04:17:03;101442.14;;;25.66;48.96
75745;BME280;64359;51.366;-0.222;2023-06-26T04:18:07;101449.83;;;25.65;49.00
75745;BME280;64359;51.366;-0.222;2023-06-26T04:19:12;101454.61;;;25.65;49.06
75745;BME280;64359;51.366;-0.222;2023-06-26T04:20:16;101454.65;;;25.65;48.99
75745;BME280;64359;51.366;-0.222;2023-06-26T04:21:20;101458.55;;;25.64;48.95
75745;BME280;64359;51.366;-0.222;2023-06-26T04:22:27;101463.27;;;25.64;49.02
75745;BME280;64359;51.366;-0.222;2023-06-26T04:23:31;101467.92;;;25.63;49.02
75745;BME280;64359;51.366;-0.222;2023-06-26T04:24:36;101470.27;;;25.63;49.08
75745;BME280;64359;51.366;-0.222;2023-06-26T04:25:40;101472.32;;;25.63;49.15
75745;BME280;64359;51.366;-0.222;2023-06-26T04:26:45;101478.33;;;25.63;49.08
75745;BME280;64359;51.366;-0.222;2023-06-26T04:27:49;101479.55;;;25.62;49.06
75745;BME280;64359;51.366;-0.222;2023-06-26T04:28:54;101484.95;;;25.62;48.94
75745;BME280;64359;51.366;-0.222;2023-06-26T04:29:58;101483.32;;;25.62;49.07
75745;BME280;64359;51.366;-0.222;2023-06-26T04:31:03;101482.98;;;25.62;49.04
75745;BME280;64359;51.366;-0.222;2023-06-26T04:32:07;101476.27;;;25.62;49.15
75745;BME280;64359;51.366;-0.222;2023-06-26T04:33:12;101473.67;;;25.62;49.09
75745;BME280;64359;51.366;-0.222;2023-06-26T04:34:18;101469.76;;;25.62;49.18
75745;BME280;64359;51.366;-0.222;2023-06-26T04:35:22;101469.92;;;25.62;49.17
75745;BME280;64359;51.366;-0.222;2023-06-26T04:36:27;101473.58;;;25.62;49.23
75745;BME280;64359;51.366;-0.222;2023-06-26T04:37:32;101473.79;;;25.62;49.09
75745;BME280;64359;51.366;-0.222;2023-06-26T04:38:36;101469.11;;;25.58;49.04
75745;BME280;64359;51.366;-0.222;2023-06-26T04:39:40;101474.04;;;25.61;49.15
75745;BME280;64359;51.366;-0.222;2023-06-26T04:40:45;101474.75;;;25.61;49.14
75745;BME280;64359;51.366;-0.222;2023-06-26T04:41:49;101475.67;;;25.61;49.10
75745;BME280;64359;51.366;-0.222;2023-06-26T04:42:53;101475.50;;;25.61;49.08
75745;BME280;64359;51.366;-0.222;2023-06-26T04:43:57;101472.98;;;25.61;49.04
75745;BME280;64359;51.366;-0.222;2023-06-26T04:45:02;101463.66;;;25.57;49.18
75745;BME280;64359;51.366;-0.222;2023-06-26T04:46:07;101468.33;;;25.60;49.08
75745;BME280;64359;51.366;-0.222;2023-06-26T04:47:11;101468.28;;;25.60;49.00
75745;BME280;64359;51.366;-0.222;2023-06-26T04:48:18;101475.84;;;25.60;48.96
75745;BME280;64359;51.366;-0.222;2023-06-26T04:49:22;101477.48;;;25.60;49.10
75745;BME280;64359;51.366;-0.222;2023-06-26T04:50:26;101479.50;;;25.60;49.17
75745;BME280;64359;51.366;-0.222;2023-06-26T04:51:32;101484.20;;;25.60;49.15
75745;BME280;64359;51.366;-0.222;2023-06-26T04:52:36;101482.23;;;25.60;49.06
75745;BME280;64359;51.366;-0.222;2023-06-26T04:53:41;101483.31;;;25.60;49.06
75745;BME280;64359;51.366;-0.222;2023-06-26T04:54:45;101485.33;;;25.60;49.22
75745;BME280;64359;51.366;-0.222;2023-06-26T04:55:50;101486.67;;;25.59;49.19
75745;BME280;64359;51.366;-0.222;2023-06-26T04:56:54;101489.52;;;25.60;49.18
75745;BME280;64359;51.366;-0.222;2023-06-26T04:57:59;101489.94;;;25.59;49.15
75745;BME280;64359;51.366;-0.222;2023-06-26T04:59:04;101492.63;;;25.59;49.26
75745;BME280;64359;51.366;-0.222;2023-06-26T05:00:10;101493.05;;;25.59;49.13
75745;BME280;64359;51.366;-0.222;2023-06-26T05:01:15;101490.33;;;25.59;49.22
75745;BME280;64359;51.366;-0.222;2023-06-26T05:02:20;101495.10;;;25.59;49.15
75745;BME280;64359;51.366;-0.222;2023-06-26T05:03:24;101498.75;;;25.58;49.30
75745;BME280;64359;51.366;-0.222;2023-06-26T05:04:28;101501.95;;;25.58;49.26
75745;BME280;64359;51.366;-0.222;2023-06-26T05:05:32;101503.58;;;25.58;49.23
75745;BME280;64359;51.366;-0.222;2023-06-26T05:06:37;101498.71;;;25.58;49.13
75745;BME280;64359;51.366;-0.222;2023-06-26T05:07:42;101498.16;;;25.57;49.09
75745;BME280;64359;51.366;-0.222;2023-06-26T05:08:46;101502.06;;;25.57;49.00
75745;BME280;64359;51.366;-0.222;2023-06-26T05:09:51;101501.23;;;25.57;49.05
75745;BME280;64359;51.366;-0.222;2023-06-26T05:10:55;101499.66;;;25.56;48.93
75745;BME280;64359;51.366;-0.222;2023-06-26T05:12:01;101498.02;;;25.56;49.04
75745;BME280;64359;51.366;-0.222;2023-06-26T05:13:06;101497.52;;;25.55;49.22
75745;BME280;64359;51.366;-0.222;2023-06-26T05:14:10;101498.47;;;25.55;49.29
75745;BME280;64359;51.366;-0.222;2023-06-26T05:15:16;101494.83;;;25.55;49.32
75745;BME280;64359;51.366;-0.222;2023-06-26T05:16:21;101496.09;;;25.55;49.45
75745;BME280;64359;51.366;-0.222;2023-06-26T05:17:25;101496.77;;;25.56;49.35
75745;BME280;64359;51.366;-0.222;2023-06-26T05:18:30;101495.64;;;25.56;49.50
75745;BME280;64359;51.366;-0.222;2023-06-26T05:19:34;101500.13;;;25.56;49.33
75745;BME280;64359;51.366;-0.222;2023-06-26T05:20:39;101498.58;;;25.56;49.32
75745;BME280;64359;51.366;-0.222;2023-06-26T05:21:44;101504.78;;;25.56;49.17
75745;BME280;64359;51.366;-0.222;2023-06-26T05:22:49;101510.06;;;25.56;49.18
75745;BME280;64359;51.366;-0.222;2023-06-26T05:23:57;101511.11;;;25.56;49.22
75745;BME280;64359;51.366;-0.222;2023-06-26T05:25:04;101506.30;;;25.54;49.13
75745;BME280;64359;51.366;-0.222;2023-06-26T05:26:09;101510.62;;;25.56;49.48
75745;BME280;64359;51.366;-0.222;2023-06-26T05:27:15;101517.17;;;25.57;49.67
75745;BME280;64359;51.366;-0.222;2023-06-26T05:28:26;101516.13;;;25.59;49.93
75745;BME280;64359;51.366;-0.222;2023-06-26T05:29:33;101518.21;;;25.63;50.28
75745;BME280;64359;51.366;-0.222;2023-06-26T05:30:38;101520.17;;;25.63;49.95
75745;BME280;64359;51.366;-0.222;2023-06-26T05:31:43;101528.67;;;25.70;50.43
75745;BME280;64359;51.366;-0.222;2023-06-26T05:32:49;101529.93;;;25.77;50.89
75745;BME280;64359;51.366;-0.222;2023-06-26T05:33:55;101529.77;;;25.83;49.69
75745;BME280;64359;51.366;-0.222;2023-06-26T05:35:02;101530.23;;;25.87;50.15
75745;BME280;64359;51.366;-0.222;2023-06-26T05:36:08;101529.96;;;25.90;49.09